CFG1ZX LEPA-EDLW
Flight info
| Callsign | CFG1ZX |
|---|---|
| Flight time | N/A |
| Altitude | 34000 |
| Route | MEROS N853 LUMAS DCT MAXIR DCT LUSOL DCT BODRU DCT OKTET DCT IRMAR DCT KINES DCT VANAS DCT MOBLO DCT UBIMA DCT GILIR DCT PENDU DCT IXILU DCT EPL/N0448F320 DCT ROUSY DCT DIK/N0446F350 T856 AFNAF M170 ADEMI ADEMI2A |
| Aircraft | A21N/M-SDE2E3FGHIRWXY/LB1 |
Departure
| Time | 2026-05-01 13:58 |
|---|---|
| Airport | Palma de Mallorca Airport (LEPA) |
Arrival
| Time | N/A |
|---|---|
| Airport | Dortmund Airport (EDLW) |
| Time | Latitude | Longitude | Altitude | Speed | Heading |
|---|---|---|---|---|---|
| 2026-05-01 13:33 | 39.54904 | 2.73808 | 42 ft | 0 kts | 249° |
| 2026-05-01 13:48 | 39.54911 | 2.73832 | 44 ft | 4 kts | 249° |
| 2026-05-01 13:49 | 39.54920 | 2.73863 | 41 ft | 2 kts | 249° |
| 2026-05-01 13:49 | 39.54931 | 2.73890 | 40 ft | 4 kts | 227° |
| 2026-05-01 13:49 | 39.54952 | 2.73906 | 43 ft | 4 kts | 184° |
| 2026-05-01 13:49 | 39.54976 | 2.73900 | 44 ft | 3 kts | 149° |
| 2026-05-01 13:50 | 39.54998 | 2.73882 | 41 ft | 4 kts | 149° |
| 2026-05-01 13:50 | 39.55010 | 2.73873 | 40 ft | 0 kts | 149° |
| 2026-05-01 13:52 | 39.55008 | 2.73874 | 39 ft | 2 kts | 149° |
| 2026-05-01 13:53 | 39.54984 | 2.73893 | 42 ft | 7 kts | 149° |
| 2026-05-01 13:53 | 39.54925 | 2.74043 | 42 ft | 13 kts | 143° |
| 2026-05-01 13:53 | 39.54842 | 2.74111 | 44 ft | 15 kts | 148° |
| 2026-05-01 13:54 | 39.54758 | 2.74060 | 44 ft | 16 kts | 239° |
| 2026-05-01 13:54 | 39.54699 | 2.73933 | 44 ft | 17 kts | 238° |
| 2026-05-01 13:54 | 39.54634 | 2.73798 | 44 ft | 18 kts | 238° |
| 2026-05-01 13:54 | 39.54565 | 2.73656 | 43 ft | 19 kts | 238° |
| 2026-05-01 13:55 | 39.54495 | 2.73505 | 44 ft | 20 kts | 239° |
| 2026-05-01 13:55 | 39.54421 | 2.73348 | 44 ft | 21 kts | 238° |
| 2026-05-01 13:55 | 39.54345 | 2.73190 | 44 ft | 21 kts | 239° |
| 2026-05-01 13:55 | 39.54269 | 2.73027 | 44 ft | 22 kts | 239° |
| 2026-05-01 13:56 | 39.54211 | 2.72922 | 44 ft | 14 kts | 204° |
| 2026-05-01 13:56 | 39.54150 | 2.72992 | 44 ft | 15 kts | 89° |
| 2026-05-01 13:56 | 39.54149 | 2.73132 | 44 ft | 16 kts | 95° |
| 2026-05-01 13:56 | 39.54149 | 2.73221 | 44 ft | 8 kts | 78° |
| 2026-05-01 13:57 | 39.54154 | 2.73233 | 44 ft | 2 kts | 52° |
| 2026-05-01 13:57 | 39.54190 | 2.73303 | 44 ft | 32 kts | 59° |
| 2026-05-01 13:57 | 39.54578 | 2.74125 | 44 ft | 127 kts | 59° |
| 2026-05-01 13:57 | 39.54797 | 2.74592 | 45 ft | 152 kts | 60° |
| 2026-05-01 13:58 | 39.54923 | 2.74857 | 88 ft | 156 kts | 61° |
| 2026-05-01 13:58 | 39.55490 | 2.76027 | 766 ft | 152 kts | 60° |
| 2026-05-01 13:58 | 39.56013 | 2.77232 | 1416 ft | 157 kts | 64° |
| 2026-05-01 13:59 | 39.56594 | 2.78500 | 1885 ft | 171 kts | 59° |
| 2026-05-01 13:59 | 39.57257 | 2.79869 | 2377 ft | 187 kts | 60° |
| 2026-05-01 13:59 | 39.57957 | 2.81351 | 2925 ft | 203 kts | 60° |
| 2026-05-01 13:59 | 39.58708 | 2.82953 | 3539 ft | 212 kts | 60° |
| 2026-05-01 14:00 | 39.59486 | 2.84611 | 4239 ft | 217 kts | 61° |
| 2026-05-01 14:00 | 39.60272 | 2.86294 | 5017 ft | 221 kts | 60° |
| 2026-05-01 14:00 | 39.61078 | 2.88014 | 5768 ft | 224 kts | 61° |
| 2026-05-01 14:00 | 39.61890 | 2.89753 | 6492 ft | 226 kts | 61° |
| 2026-05-01 14:01 | 39.62706 | 2.91531 | 7011 ft | 238 kts | 62° |
| 2026-05-01 14:01 | 39.63268 | 2.92840 | 7219 ft | 252 kts | 63° |
| 2026-05-01 14:01 | 39.64137 | 2.94877 | 7566 ft | 271 kts | 63° |
| 2026-05-01 14:01 | 39.65073 | 2.97067 | 8110 ft | 282 kts | 62° |
| 2026-05-01 14:02 | 39.66037 | 2.99317 | 8817 ft | 287 kts | 61° |
| 2026-05-01 14:02 | 39.67013 | 3.01597 | 9540 ft | 292 kts | 61° |
| 2026-05-01 14:02 | 39.68009 | 3.03924 | 10236 ft | 297 kts | 60° |
| 2026-05-01 14:02 | 39.69032 | 3.06319 | 10642 ft | 313 kts | 61° |
| 2026-05-01 14:03 | 39.70118 | 3.08865 | 10926 ft | 331 kts | 61° |
| 2026-05-01 14:03 | 39.71263 | 3.11556 | 11202 ft | 349 kts | 61° |
| 2026-05-01 14:03 | 39.72470 | 3.14388 | 11464 ft | 367 kts | 61° |
| 2026-05-01 14:03 | 39.73730 | 3.17341 | 11940 ft | 376 kts | 61° |
| 2026-05-01 14:04 | 39.75004 | 3.20330 | 12613 ft | 380 kts | 61° |
| 2026-05-01 14:04 | 39.76284 | 3.23347 | 13310 ft | 384 kts | 61° |
| 2026-05-01 14:04 | 39.77651 | 3.26352 | 13951 ft | 388 kts | 54° |
| 2026-05-01 14:04 | 39.79368 | 3.29089 | 14509 ft | 392 kts | 48° |
| 2026-05-01 14:05 | 39.81156 | 3.31737 | 15096 ft | 395 kts | 48° |
| 2026-05-01 14:05 | 39.82979 | 3.34436 | 15691 ft | 398 kts | 48° |
| 2026-05-01 14:05 | 39.84809 | 3.37163 | 16300 ft | 401 kts | 48° |
| 2026-05-01 14:05 | 39.86641 | 3.39912 | 16911 ft | 404 kts | 49° |
| 2026-05-01 14:06 | 39.88490 | 3.42688 | 17526 ft | 407 kts | 48° |
| 2026-05-01 14:06 | 39.90347 | 3.45485 | 18106 ft | 410 kts | 48° |
| 2026-05-01 14:06 | 39.92225 | 3.48319 | 18648 ft | 414 kts | 49° |
| 2026-05-01 14:06 | 39.94113 | 3.51168 | 19136 ft | 418 kts | 48° |
| 2026-05-01 14:07 | 39.96012 | 3.54042 | 19620 ft | 421 kts | 48° |
| 2026-05-01 14:07 | 39.97932 | 3.56957 | 20086 ft | 424 kts | 48° |
| 2026-05-01 14:07 | 39.99858 | 3.59887 | 20578 ft | 427 kts | 49° |
| 2026-05-01 14:08 | 40.03774 | 3.65815 | 21518 ft | 434 kts | 48° |
| 2026-05-01 14:08 | 40.05760 | 3.68803 | 21969 ft | 437 kts | 48° |
| 2026-05-01 14:08 | 40.07748 | 3.71808 | 22421 ft | 440 kts | 49° |
| 2026-05-01 14:08 | 40.09754 | 3.74847 | 22860 ft | 443 kts | 49° |
| 2026-05-01 14:09 | 40.11747 | 3.77875 | 23307 ft | 446 kts | 49° |
| 2026-05-01 14:09 | 40.13776 | 3.80965 | 23739 ft | 449 kts | 49° |
| 2026-05-01 14:09 | 40.15813 | 3.84072 | 24168 ft | 450 kts | 49° |
| 2026-05-01 14:09 | 40.17854 | 3.87188 | 24514 ft | 453 kts | 49° |
| 2026-05-01 14:10 | 40.19902 | 3.90324 | 24891 ft | 455 kts | 49° |
| 2026-05-01 14:10 | 40.21962 | 3.93488 | 25279 ft | 457 kts | 49° |
| 2026-05-01 14:10 | 40.24026 | 3.96657 | 25640 ft | 459 kts | 48° |
| 2026-05-01 14:10 | 40.26115 | 3.99849 | 25978 ft | 462 kts | 48° |
| 2026-05-01 14:11 | 40.28205 | 4.03047 | 26330 ft | 464 kts | 48° |
| 2026-05-01 14:11 | 40.32427 | 4.09520 | 26986 ft | 470 kts | 49° |
| 2026-05-01 14:11 | 40.34560 | 4.12803 | 27307 ft | 472 kts | 49° |
| 2026-05-01 14:12 | 40.36693 | 4.16084 | 27629 ft | 474 kts | 48° |
| 2026-05-01 14:12 | 40.38821 | 4.19366 | 28071 ft | 472 kts | 49° |
| 2026-05-01 14:12 | 40.40948 | 4.22655 | 28472 ft | 472 kts | 49° |
| 2026-05-01 14:12 | 40.43076 | 4.25944 | 28834 ft | 473 kts | 49° |
| 2026-05-01 14:13 | 40.45172 | 4.29210 | 29211 ft | 473 kts | 49° |
| 2026-05-01 14:13 | 40.47337 | 4.32458 | 29585 ft | 472 kts | 44° |
| 2026-05-01 14:13 | 40.49854 | 4.35189 | 29944 ft | 470 kts | 32° |
| 2026-05-01 14:13 | 40.52753 | 4.37136 | 30285 ft | 467 kts | 19° |
| 2026-05-01 14:14 | 40.55883 | 4.38217 | 30585 ft | 464 kts | 9° |
| 2026-05-01 14:14 | 40.59052 | 4.38949 | 30907 ft | 463 kts | 7° |
| 2026-05-01 14:14 | 40.62229 | 4.39646 | 31223 ft | 462 kts | 8° |
| 2026-05-01 14:14 | 40.65392 | 4.40364 | 31530 ft | 461 kts | 8° |
| 2026-05-01 14:15 | 40.68557 | 4.41101 | 31829 ft | 460 kts | 8° |
| 2026-05-01 14:15 | 40.71707 | 4.41838 | 32113 ft | 460 kts | 8° |
| 2026-05-01 14:15 | 40.74851 | 4.42580 | 32397 ft | 459 kts | 8° |
| 2026-05-01 14:15 | 40.77995 | 4.43336 | 32675 ft | 458 kts | 8° |
| 2026-05-01 14:16 | 40.81132 | 4.44094 | 32947 ft | 458 kts | 8° |
| 2026-05-01 14:16 | 40.84262 | 4.44842 | 33191 ft | 458 kts | 8° |
| 2026-05-01 14:16 | 40.87396 | 4.45603 | 33401 ft | 458 kts | 8° |
| 2026-05-01 14:16 | 40.90521 | 4.46362 | 33628 ft | 458 kts | 8° |
| 2026-05-01 14:17 | 40.93626 | 4.47123 | 33865 ft | 457 kts | 8° |
| 2026-05-01 14:17 | 40.96790 | 4.47907 | 34093 ft | 457 kts | 9° |
| 2026-05-01 14:17 | 40.98403 | 4.48314 | 34203 ft | 456 kts | 8° |
| 2026-05-01 14:18 | 40.99332 | 4.48544 | 34253 ft | 457 kts | 8° |
| 2026-05-01 14:18 | 41.03237 | 4.49478 | 34295 ft | 456 kts | 8° |
| 2026-05-01 14:19 | 41.10536 | 4.51274 | 34260 ft | 456 kts | 8° |
| 2026-05-01 14:19 | 41.16761 | 4.52814 | 34249 ft | 456 kts | 8° |
| 2026-05-01 14:20 | 41.26120 | 4.55086 | 34260 ft | 455 kts | 7° |
| 2026-05-01 14:21 | 41.32321 | 4.56545 | 34258 ft | 456 kts | 7° |
| 2026-05-01 14:21 | 41.38560 | 4.58054 | 34263 ft | 454 kts | 7° |
| 2026-05-01 14:22 | 41.47873 | 4.60394 | 34270 ft | 454 kts | 7° |
| 2026-05-01 14:22 | 41.54089 | 4.61916 | 34269 ft | 454 kts | 7° |
| 2026-05-01 14:23 | 41.60311 | 4.63466 | 34262 ft | 455 kts | 7° |
| 2026-05-01 14:23 | 41.66491 | 4.65007 | 34272 ft | 455 kts | 7° |
| 2026-05-01 14:24 | 41.72677 | 4.66742 | 34262 ft | 457 kts | 15° |
| 2026-05-01 14:24 | 41.75592 | 4.68502 | 34270 ft | 462 kts | 26° |
| 2026-05-01 14:24 | 41.78361 | 4.70718 | 34272 ft | 463 kts | 28° |
| 2026-05-01 14:25 | 41.83849 | 4.75225 | 34288 ft | 463 kts | 28° |
| 2026-05-01 14:25 | 41.89366 | 4.79684 | 34295 ft | 462 kts | 28° |
| 2026-05-01 14:26 | 41.97633 | 4.86374 | 34284 ft | 462 kts | 28° |
| 2026-05-01 14:27 | 42.03153 | 4.90804 | 34286 ft | 462 kts | 28° |
| 2026-05-01 14:27 | 42.08662 | 4.95298 | 34290 ft | 462 kts | 28° |
| 2026-05-01 14:28 | 42.16887 | 5.01891 | 34291 ft | 458 kts | 28° |
| 2026-05-01 14:28 | 42.22303 | 5.06337 | 34294 ft | 458 kts | 28° |
| 2026-05-01 14:29 | 42.27774 | 5.10739 | 34302 ft | 458 kts | 28° |
| 2026-05-01 14:30 | 42.38667 | 5.19632 | 34304 ft | 457 kts | 28° |
| 2026-05-01 14:31 | 42.46814 | 5.26338 | 34306 ft | 457 kts | 28° |
| 2026-05-01 14:31 | 42.52253 | 5.30813 | 34310 ft | 457 kts | 28° |
| 2026-05-01 14:32 | 42.57676 | 5.35290 | 34316 ft | 454 kts | 28° |
| 2026-05-01 14:32 | 42.63082 | 5.39758 | 34304 ft | 454 kts | 29° |
| 2026-05-01 14:33 | 42.68480 | 5.44255 | 34308 ft | 455 kts | 29° |
| 2026-05-01 14:33 | 42.73830 | 5.48726 | 34312 ft | 454 kts | 28° |
| 2026-05-01 14:34 | 42.79212 | 5.53251 | 34310 ft | 455 kts | 29° |
| 2026-05-01 14:34 | 42.84622 | 5.57714 | 34311 ft | 454 kts | 28° |
| 2026-05-01 14:35 | 42.90021 | 5.62211 | 34313 ft | 454 kts | 29° |
| 2026-05-01 14:35 | 42.95413 | 5.66710 | 34306 ft | 454 kts | 29° |
| 2026-05-01 14:36 | 43.00776 | 5.71212 | 34317 ft | 453 kts | 28° |
| 2026-05-01 14:36 | 43.06115 | 5.75710 | 34309 ft | 447 kts | 28° |
| 2026-05-01 14:37 | 43.11416 | 5.80175 | 34318 ft | 448 kts | 28° |
| 2026-05-01 14:37 | 43.16721 | 5.84654 | 34314 ft | 448 kts | 28° |
| 2026-05-01 14:38 | 43.21986 | 5.89114 | 34312 ft | 448 kts | 28° |
| 2026-05-01 14:38 | 43.27285 | 5.93603 | 34312 ft | 448 kts | 28° |
| 2026-05-01 14:39 | 43.32587 | 5.98117 | 34312 ft | 448 kts | 28° |
| 2026-05-01 14:39 | 43.37821 | 6.02412 | 34307 ft | 446 kts | 23° |
| 2026-05-01 14:39 | 43.40710 | 6.03887 | 34307 ft | 441 kts | 11° |
| 2026-05-01 14:40 | 43.43731 | 6.04539 | 34314 ft | 438 kts | 2° |
| 2026-05-01 14:40 | 43.49560 | 6.05083 | 34316 ft | 438 kts | 1° |
| 2026-05-01 14:41 | 43.55650 | 6.05652 | 34318 ft | 439 kts | 1° |
| 2026-05-01 14:41 | 43.61751 | 6.06263 | 34314 ft | 440 kts | 1° |
| 2026-05-01 14:42 | 43.67858 | 6.06874 | 34320 ft | 440 kts | 1° |
| 2026-05-01 14:42 | 43.73930 | 6.07488 | 34311 ft | 441 kts | 2° |
| 2026-05-01 14:43 | 43.79887 | 6.09633 | 34321 ft | 447 kts | 22° |
| 2026-05-01 14:43 | 43.85473 | 6.13441 | 34319 ft | 447 kts | 24° |
| 2026-05-01 14:44 | 43.91037 | 6.17285 | 34318 ft | 447 kts | 23° |
| 2026-05-01 14:44 | 43.99407 | 6.23024 | 34311 ft | 447 kts | 23° |
| 2026-05-01 14:45 | 44.07776 | 6.28766 | 34310 ft | 448 kts | 23° |
| 2026-05-01 14:46 | 44.13323 | 6.32586 | 34311 ft | 448 kts | 23° |
| 2026-05-01 14:46 | 44.21710 | 6.38357 | 34307 ft | 448 kts | 23° |
| 2026-05-01 14:47 | 44.27308 | 6.42211 | 34311 ft | 448 kts | 23° |
| 2026-05-01 14:48 | 44.35688 | 6.48033 | 34314 ft | 446 kts | 24° |
| 2026-05-01 14:48 | 44.44020 | 6.53798 | 34307 ft | 445 kts | 24° |
| 2026-05-01 14:49 | 44.55054 | 6.61504 | 34322 ft | 445 kts | 24° |
| 2026-05-01 14:50 | 44.65231 | 6.68639 | 34317 ft | 445 kts | 24° |
| 2026-05-01 14:51 | 44.73508 | 6.74450 | 34332 ft | 445 kts | 24° |
| 2026-05-01 14:52 | 44.81247 | 6.78646 | 34331 ft | 438 kts | 5° |
| 2026-05-01 14:53 | 44.90281 | 6.78372 | 34350 ft | 435 kts | 355° |
| 2026-05-01 14:53 | 44.96340 | 6.77931 | 34349 ft | 435 kts | 355° |
| 2026-05-01 14:54 | 45.02381 | 6.77537 | 34344 ft | 434 kts | 355° |
| 2026-05-01 14:54 | 45.08417 | 6.77154 | 34346 ft | 433 kts | 355° |
| 2026-05-01 14:55 | 45.14456 | 6.76754 | 34328 ft | 434 kts | 355° |
| 2026-05-01 14:55 | 45.20463 | 6.76359 | 34336 ft | 434 kts | 355° |
| 2026-05-01 14:56 | 45.26504 | 6.75947 | 34321 ft | 434 kts | 355° |
| 2026-05-01 14:56 | 45.32541 | 6.75532 | 34325 ft | 434 kts | 355° |
| 2026-05-01 14:57 | 45.38578 | 6.75128 | 34332 ft | 434 kts | 355° |
| 2026-05-01 14:57 | 45.47664 | 6.74525 | 34324 ft | 436 kts | 355° |
| 2026-05-01 14:58 | 45.53719 | 6.74112 | 34331 ft | 436 kts | 355° |
| 2026-05-01 14:58 | 45.59789 | 6.73695 | 34323 ft | 439 kts | 355° |
| 2026-05-01 14:59 | 45.65863 | 6.73269 | 34315 ft | 441 kts | 355° |
| 2026-05-01 14:59 | 45.71995 | 6.72844 | 34309 ft | 440 kts | 356° |
| 2026-05-01 15:00 | 45.81186 | 6.72210 | 34306 ft | 443 kts | 355° |
| 2026-05-01 15:01 | 45.87357 | 6.71780 | 34310 ft | 444 kts | 355° |
| 2026-05-01 15:01 | 45.93531 | 6.71365 | 34309 ft | 440 kts | 355° |
| 2026-05-01 15:02 | 45.99262 | 6.70992 | 34304 ft | 441 kts | 355° |
| 2026-05-01 15:02 | 46.05410 | 6.70594 | 34299 ft | 443 kts | 355° |
| 2026-05-01 15:03 | 46.11523 | 6.70105 | 34302 ft | 442 kts | 351° |
| 2026-05-01 15:03 | 46.17428 | 6.67837 | 34302 ft | 439 kts | 340° |
| 2026-05-01 15:04 | 46.23264 | 6.64947 | 34292 ft | 445 kts | 340° |
| 2026-05-01 15:04 | 46.29126 | 6.62065 | 34291 ft | 445 kts | 340° |
| 2026-05-01 15:05 | 46.35009 | 6.59206 | 34282 ft | 445 kts | 340° |
| 2026-05-01 15:05 | 46.40859 | 6.56369 | 34281 ft | 449 kts | 340° |
| 2026-05-01 15:06 | 46.46792 | 6.53468 | 34280 ft | 450 kts | 340° |
| 2026-05-01 15:06 | 46.52718 | 6.50559 | 34280 ft | 449 kts | 340° |
| 2026-05-01 15:07 | 46.58640 | 6.47644 | 34275 ft | 449 kts | 340° |
| 2026-05-01 15:07 | 46.64544 | 6.44726 | 34275 ft | 446 kts | 339° |
| 2026-05-01 15:08 | 46.70422 | 6.41821 | 34283 ft | 446 kts | 339° |
| 2026-05-01 15:08 | 46.76293 | 6.38913 | 34282 ft | 446 kts | 339° |
| 2026-05-01 15:09 | 46.82144 | 6.36002 | 34279 ft | 450 kts | 340° |
| 2026-05-01 15:09 | 46.88092 | 6.33040 | 34269 ft | 452 kts | 340° |
| 2026-05-01 15:10 | 46.94053 | 6.30063 | 34267 ft | 453 kts | 340° |
| 2026-05-01 15:10 | 47.03002 | 6.25588 | 34271 ft | 454 kts | 340° |
| 2026-05-01 15:11 | 47.11698 | 6.20072 | 34261 ft | 454 kts | 332° |
| 2026-05-01 15:12 | 47.17322 | 6.16004 | 34256 ft | 452 kts | 332° |
| 2026-05-01 15:12 | 47.25804 | 6.09866 | 34247 ft | 457 kts | 332° |
| 2026-05-01 15:13 | 47.34492 | 6.04019 | 34241 ft | 460 kts | 343° |
| 2026-05-01 15:14 | 47.40875 | 6.03246 | 34264 ft | 462 kts | 0° |
| 2026-05-01 15:14 | 47.50538 | 6.03575 | 34254 ft | 464 kts | 0° |
| 2026-05-01 15:15 | 47.63432 | 6.03872 | 34253 ft | 463 kts | 0° |
| 2026-05-01 15:16 | 47.76298 | 6.04182 | 34267 ft | 462 kts | 1° |
| 2026-05-01 15:18 | 47.92363 | 6.04690 | 34252 ft | 463 kts | 1° |
| 2026-05-01 15:19 | 48.05238 | 6.05096 | 34272 ft | 463 kts | 1° |
| 2026-05-01 15:19 | 48.14879 | 6.05393 | 34269 ft | 462 kts | 1° |
| 2026-05-01 15:20 | 48.24504 | 6.05693 | 34260 ft | 461 kts | 1° |
| 2026-05-01 15:21 | 48.30928 | 6.05895 | 34259 ft | 460 kts | 1° |
| 2026-05-01 15:21 | 48.37333 | 6.06163 | 34259 ft | 460 kts | 1° |
| 2026-05-01 15:22 | 48.46896 | 6.06608 | 34263 ft | 460 kts | 1° |
| 2026-05-01 15:22 | 48.53292 | 6.06905 | 34260 ft | 459 kts | 1° |
| 2026-05-01 15:23 | 48.59679 | 6.07218 | 34263 ft | 461 kts | 2° |
| 2026-05-01 15:23 | 48.66117 | 6.07524 | 34261 ft | 463 kts | 2° |
| 2026-05-01 15:24 | 48.72570 | 6.07833 | 34259 ft | 463 kts | 2° |
| 2026-05-01 15:24 | 48.79008 | 6.08148 | 34261 ft | 463 kts | 2° |
| 2026-05-01 15:25 | 48.85456 | 6.08448 | 34261 ft | 463 kts | 2° |
| 2026-05-01 15:25 | 48.91907 | 6.08765 | 34267 ft | 463 kts | 2° |
| 2026-05-01 15:26 | 48.98329 | 6.09093 | 34260 ft | 461 kts | 2° |
| 2026-05-01 15:26 | 49.04705 | 6.09390 | 34263 ft | 461 kts | 1° |
| 2026-05-01 15:27 | 49.11160 | 6.09717 | 34263 ft | 461 kts | 2° |
| 2026-05-01 15:28 | 49.20750 | 6.10192 | 34271 ft | 460 kts | 2° |
| 2026-05-01 15:28 | 49.27158 | 6.10497 | 34276 ft | 460 kts | 2° |
| 2026-05-01 15:29 | 49.36769 | 6.10971 | 34278 ft | 460 kts | 1° |
| 2026-05-01 15:30 | 49.48471 | 6.11534 | 34286 ft | 460 kts | 1° |
| 2026-05-01 15:31 | 49.68667 | 6.12300 | 34292 ft | 458 kts | 1° |
| 2026-05-01 15:32 | 49.81420 | 6.12785 | 34286 ft | 458 kts | 1° |
| 2026-05-01 15:33 | 49.90651 | 6.16036 | 34280 ft | 459 kts | 24° |
| 2026-05-01 15:34 | 49.99338 | 6.22331 | 34261 ft | 459 kts | 25° |